Time;durP1;ratioP1;P1;durP2;ratioP2;P2;SDS_P1;SDS_P2;PMS_P1;PMS_P2;Temp;Humidity;BMP_temperature;BMP_pressure;BME280_temperature;BME280_humidity;BME280_pressure;Samples;Min_cycle;Max_cycle;Signal;HPM_P1;HPM_P2
2023/10/26 00:00:26;;;;;;;5.00;4.50;;;13.40;99.90;;;;;;4962728;28;20644;-73
2023/10/26 00:02:52;;;;;;;5.43;4.93;;;13.40;99.90;;;;;;4961690;28;20980;-74
2023/10/26 00:05:18;;;;;;;4.73;4.10;;;13.40;99.90;;;;;;4971465;28;20623;-73
2023/10/26 00:07:44;;;;;;;4.70;3.90;;;13.40;99.90;;;;;;4970025;28;20184;-73
2023/10/26 00:10:10;;;;;;;4.90;4.50;;;13.40;99.90;;;;;;4970235;28;21268;-74
2023/10/26 00:12:36;;;;;;;3.50;3.20;;;13.40;99.90;;;;;;4961087;28;20295;-74
2023/10/26 00:15:02;;;;;;;3.57;3.20;;;13.40;99.90;;;;;;4963073;28;20207;-73
2023/10/26 00:17:28;;;;;;;3.20;2.90;;;13.40;99.90;;;;;;4954164;28;20579;-73
2023/10/26 00:19:53;;;;;;;3.10;2.63;;;13.40;99.90;;;;;;4971406;28;21163;-74
2023/10/26 00:22:20;;;;;;;2.60;2.40;;;13.40;99.90;;;;;;4970107;28;20250;-74
2023/10/26 00:24:46;;;;;;;3.17;2.87;;;13.40;99.90;;;;;;4962007;28;20211;-74
2023/10/26 00:27:11;;;;;;;2.67;2.33;;;13.40;99.90;;;;;;4966013;28;21129;-73
2023/10/26 00:29:37;;;;;;;3.03;1.80;;;13.40;99.90;;;;;;4973725;28;20176;-73
2023/10/26 00:32:06;;;;;;;2.63;2.10;;;13.40;99.90;;;;;;4970431;28;20184;-74
2023/10/26 00:34:32;;;;;;;2.60;2.10;;;13.40;99.90;;;;;;4970297;28;20238;-73
2023/10/26 00:36:58;;;;;;;3.00;2.10;;;13.40;99.90;;;;;;4949433;28;20597;-74
2023/10/26 00:39:23;;;;;;;3.47;2.70;;;13.40;99.90;;;;;;4973807;28;20946;-74
2023/10/26 00:41:53;;;;;;;3.13;2.83;;;13.30;99.90;;;;;;4973064;28;20729;-74
2023/10/26 00:44:20;;;;;;;2.80;2.43;;;13.30;99.90;;;;;;4942917;28;20694;-74
2023/10/26 00:46:51;;;;;;;4.90;2.93;;;13.30;99.90;;;;;;4947716;28;20596;-73
2023/10/26 00:49:18;;;;;;;2.90;2.53;;;13.30;99.90;;;;;;4973552;28;20682;-73
2023/10/26 00:51:51;;;;;;;4.03;3.63;;;13.30;99.90;;;;;;4973232;28;20595;-73
2023/10/26 00:54:19;;;;;;;3.50;3.20;;;13.30;99.90;;;;;;4974575;28;20610;-74
2023/10/26 00:56:50;;;;;;;4.70;4.30;;;13.20;99.90;;;;;;4954504;28;20649;-74
2023/10/26 00:59:17;;;;;;;3.83;3.53;;;13.20;99.90;;;;;;4961830;28;20698;-73
2023/10/26 01:01:45;;;;;;;4.20;3.80;;;13.20;99.90;;;;;;4971032;28;20579;-73
2023/10/26 01:04:14;;;;;;;4.40;4.00;;;13.20;99.90;;;;;;4927843;29;20659;-74
2023/10/26 01:06:41;;;;;;;6.43;5.83;;;13.20;99.90;;;;;;4970307;28;20247;-73
2023/10/26 01:09:08;;;;;;;5.22;4.72;;;13.20;99.90;;;;;;4956239;28;20650;-74
2023/10/26 01:11:37;;;;;;;4.93;4.50;;;13.20;99.90;;;;;;4974345;28;20517;-73
2023/10/26 01:14:07;;;;;;;5.87;5.30;;;13.20;99.90;;;;;;4965413;28;20619;-73
2023/10/26 01:16:34;;;;;;;7.30;6.37;;;13.20;99.90;;;;;;4972819;28;21402;-74
2023/10/26 01:19:04;;;;;;;7.00;6.10;;;13.10;99.90;;;;;;4940642;28;20614;-74
2023/10/26 01:21:46;;;;;;;8.10;7.30;;;13.10;99.90;;;;;;4952959;28;20594;-73
2023/10/26 01:24:13;;;;;;;8.30;7.50;;;13.10;99.90;;;;;;4942394;28;20647;-74
2023/10/26 01:26:40;;;;;;;9.33;8.27;;;13.10;99.90;;;;;;4971515;28;20594;-74
2023/10/26 01:29:06;;;;;;;8.95;8.10;;;13.10;99.90;;;;;;4965412;28;20172;-74
2023/10/26 01:31:32;;;;;;;9.13;8.30;;;13.10;99.90;;;;;;4972542;28;20179;-74
2023/10/26 01:33:58;;;;;;;8.43;7.43;;;13.00;99.90;;;;;;4955982;28;20673;-74
2023/10/26 01:36:25;;;;;;;8.67;7.87;;;13.00;99.90;;;;;;4973377;28;20919;-75
2023/10/26 01:38:51;;;;;;;8.03;7.27;;;13.00;99.90;;;;;;4973708;28;20693;-75
2023/10/26 01:41:17;;;;;;;8.33;7.53;;;13.00;99.90;;;;;;4956150;28;20679;-74
2023/10/26 01:43:42;;;;;;;9.67;8.67;;;13.00;99.90;;;;;;4971143;28;20654;-73
2023/10/26 01:46:08;;;;;;;9.83;8.80;;;13.00;99.90;;;;;;4957289;28;20167;-73
2023/10/26 01:48:34;;;;;;;10.80;9.70;;;13.00;99.90;;;;;;4972501;28;20638;-72
2023/10/26 01:51:00;;;;;;;10.40;9.30;;;13.00;99.90;;;;;;4948274;28;20171;-72
2023/10/26 01:53:26;;;;;;;9.37;8.47;;;13.00;99.90;;;;;;4925844;29;20725;-73
2023/10/26 01:55:52;;;;;;;10.13;9.13;;;13.00;99.90;;;;;;4920919;28;20679;-73
2023/10/26 01:58:18;;;;;;;10.07;9.07;;;13.00;99.90;;;;;;4942572;28;20180;-73
2023/10/26 02:00:43;;;;;;;11.43;10.30;;;13.00;99.90;;;;;;4956023;28;20817;-73
2023/10/26 02:03:09;;;;;;;11.07;9.87;;;13.00;99.90;;;;;;4956171;28;20607;-73
2023/10/26 02:05:35;;;;;;;11.67;10.47;;;13.00;99.90;;;;;;4971828;28;20207;-73
2023/10/26 02:08:01;;;;;;;10.73;9.57;;;13.00;99.90;;;;;;4964073;28;20184;-73
2023/10/26 02:10:29;;;;;;;11.63;10.53;;;13.00;99.90;;;;;;4972262;28;20623;-73
2023/10/26 02:12:56;;;;;;;12.60;11.13;;;13.00;99.90;;;;;;4953027;28;20222;-73
2023/10/26 02:15:21;;;;;;;11.93;10.77;;;13.00;99.90;;;;;;4950300;28;20203;-73
2023/10/26 02:17:47;;;;;;;11.43;10.20;;;13.00;99.90;;;;;;4971667;28;20210;-72
2023/10/26 02:20:13;;;;;;;11.70;10.50;;;13.00;99.90;;;;;;4956152;28;20223;-73
2023/10/26 02:22:39;;;;;;;10.80;9.70;;;13.00;99.90;;;;;;4972033;28;20637;-73
2023/10/26 02:25:05;;;;;;;11.30;9.77;;;13.00;99.90;;;;;;4955588;28;20211;-72
2023/10/26 02:27:34;;;;;;;11.10;10.00;;;13.00;99.90;;;;;;4939510;28;20184;-72
2023/10/26 02:30:00;;;;;;;10.90;9.50;;;13.00;99.90;;;;;;4956051;28;20587;-72
2023/10/26 02:32:27;;;;;;;11.70;9.20;;;13.00;99.90;;;;;;4973284;28;20594;-73
2023/10/26 02:34:53;;;;;;;13.10;10.67;;;13.00;99.90;;;;;;4958306;28;20841;-73
2023/10/26 02:37:19;;;;;;;12.20;10.90;;;13.00;99.90;;;;;;4974291;28;20615;-72
2023/10/26 02:39:45;;;;;;;12.17;10.97;;;13.00;99.90;;;;;;4971581;28;20591;-72
2023/10/26 02:42:12;;;;;;;12.03;10.90;;;13.00;99.90;;;;;;4971316;28;20603;-73
2023/10/26 02:44:37;;;;;;;16.17;11.30;;;13.00;99.90;;;;;;4971359;28;20652;-72
2023/10/26 02:47:03;;;;;;;12.13;10.97;;;13.00;99.90;;;;;;4972517;28;20180;-72
2023/10/26 02:49:33;;;;;;;12.73;11.53;;;13.00;99.90;;;;;;4969919;28;20183;-72
2023/10/26 02:51:58;;;;;;;13.40;12.07;;;13.00;99.90;;;;;;4954777;28;20590;-73
2023/10/26 02:54:28;;;;;;;12.70;11.47;;;13.00;99.90;;;;;;4948167;28;20631;-73
2023/10/26 02:56:54;;;;;;;13.13;11.50;;;13.00;99.90;;;;;;4968676;28;20183;-73
2023/10/26 02:59:20;;;;;;;11.30;10.20;;;13.00;99.90;;;;;;4971170;28;20587;-73
2023/10/26 03:01:46;;;;;;;13.30;12.00;;;13.00;99.90;;;;;;4970860;28;20595;-73
2023/10/26 03:04:12;;;;;;;12.83;11.53;;;13.00;99.90;;;;;;4970850;28;20647;-77
2023/10/26 03:06:38;;;;;;;11.87;10.67;;;13.00;99.90;;;;;;4958202;28;20679;-76
2023/10/26 03:09:05;;;;;;;12.23;10.90;;;13.00;99.90;;;;;;4970015;28;20201;-76
2023/10/26 03:11:31;;;;;;;13.07;11.77;;;13.00;99.90;;;;;;4954919;28;20598;-76
2023/10/26 03:13:57;;;;;;;14.40;12.20;;;13.00;99.90;;;;;;4970575;28;20673;-75
2023/10/26 03:16:22;;;;;;;13.30;11.93;;;13.00;99.90;;;;;;4970537;28;20611;-75
2023/10/26 03:18:48;;;;;;;13.93;12.53;;;13.10;99.90;;;;;;4962919;28;20210;-76
2023/10/26 03:21:16;;;;;;;13.53;12.17;;;13.10;99.90;;;;;;4971020;28;20184;-76
2023/10/26 03:23:41;;;;;;;12.43;11.13;;;13.10;99.90;;;;;;4970706;28;20294;-76
2023/10/26 03:26:11;;;;;;;14.67;12.77;;;13.10;99.90;;;;;;4935324;28;21128;-76
2023/10/26 03:28:36;;;;;;;13.73;12.33;;;13.10;99.90;;;;;;4959491;28;20293;-75
2023/10/26 03:31:09;;;;;;;13.60;12.20;;;13.10;99.90;;;;;;4968376;28;20607;-76
2023/10/26 03:33:34;;;;;;;15.17;12.23;;;13.10;99.90;;;;;;4967393;28;20629;-76
2023/10/26 03:36:00;;;;;;;12.37;11.07;;;13.10;99.90;;;;;;4970065;28;21149;-76
2023/10/26 03:38:26;;;;;;;13.17;11.77;;;13.10;99.90;;;;;;4968752;28;20184;-76
2023/10/26 03:40:52;;;;;;;12.87;11.43;;;13.10;99.90;;;;;;4955241;28;20591;-76
2023/10/26 03:43:18;;;;;;;13.23;11.90;;;13.10;99.90;;;;;;4957973;28;20239;-77
2023/10/26 03:45:47;;;;;;;14.90;12.43;;;13.10;99.90;;;;;;4966180;28;20257;-77
2023/10/26 03:48:13;;;;;;;12.63;11.33;;;13.10;99.90;;;;;;4968038;28;21414;-77
2023/10/26 03:50:38;;;;;;;11.90;10.43;;;13.20;99.90;;;;;;4969952;28;20583;-77
2023/10/26 03:53:05;;;;;;;11.80;10.60;;;13.20;99.90;;;;;;4952540;28;20238;-77
2023/10/26 03:55:30;;;;;;;13.07;11.77;;;13.20;99.90;;;;;;4968523;28;20614;-77
2023/10/26 03:57:56;;;;;;;12.00;10.40;;;13.20;99.90;;;;;;4967726;28;20187;-76
2023/10/26 04:00:22;;;;;;;12.23;10.93;;;13.20;99.90;;;;;;4930777;28;20203;-76
2023/10/26 04:02:48;;;;;;;11.87;10.67;;;13.20;99.90;;;;;;4950398;28;20200;-76
2023/10/26 04:05:15;;;;;;;13.57;11.10;;;13.20;99.90;;;;;;4966328;28;20214;-77
2023/10/26 04:07:42;;;;;;;12.30;10.33;;;13.20;99.90;;;;;;4950716;28;20671;-76
2023/10/26 04:10:08;;;;;;;9.77;8.77;;;13.20;99.90;;;;;;4958096;28;20587;-76
2023/10/26 04:12:34;;;;;;;12.30;10.97;;;13.20;99.90;;;;;;4968020;28;20608;-76
2023/10/26 04:15:01;;;;;;;11.37;9.93;;;13.20;99.90;;;;;;4960009;28;20615;-77
2023/10/26 04:17:26;;;;;;;12.13;10.90;;;13.20;99.90;;;;;;4977833;28;20610;-82
2023/10/26 04:19:52;;;;;;;10.97;9.83;;;13.10;99.90;;;;;;4977335;28;20583;-82
2023/10/26 04:22:18;;;;;;;10.33;9.00;;;13.10;99.90;;;;;;4969147;28;20260;-82
2023/10/26 04:24:43;;;;;;;10.63;9.63;;;13.10;99.90;;;;;;4954397;28;20211;-82
2023/10/26 04:27:09;;;;;;;9.87;8.60;;;13.10;99.90;;;;;;4968629;28;20179;-82
2023/10/26 04:29:35;;;;;;;9.63;8.70;;;13.10;99.90;;;;;;4957981;28;20520;-82
2023/10/26 04:32:00;;;;;;;10.47;9.20;;;13.10;99.90;;;;;;4972319;28;20203;-83
2023/10/26 04:34:26;;;;;;;8.80;7.90;;;13.00;99.90;;;;;;4967180;28;20242;-82
2023/10/26 04:36:52;;;;;;;10.17;9.17;;;13.00;99.90;;;;;;4976659;28;20176;-83
2023/10/26 04:39:18;;;;;;;9.23;8.30;;;13.00;99.90;;;;;;4968366;28;20638;-82
2023/10/26 04:41:44;;;;;;;10.87;8.20;;;13.00;99.90;;;;;;4943605;28;20230;-83
2023/10/26 04:44:09;;;;;;;9.83;8.90;;;13.00;99.90;;;;;;4966475;28;21195;-83
2023/10/26 04:46:35;;;;;;;9.67;8.67;;;13.00;99.90;;;;;;4967588;28;20259;-83
2023/10/26 04:49:01;;;;;;;9.90;9.00;;;12.90;99.90;;;;;;4946662;28;20184;-83
2023/10/26 04:51:27;;;;;;;10.30;9.20;;;12.90;99.90;;;;;;4963791;28;20669;-83
2023/10/26 04:53:53;;;;;;;10.90;8.97;;;12.90;99.90;;;;;;4963118;28;20351;-84
2023/10/26 04:56:19;;;;;;;9.90;8.90;;;12.90;99.90;;;;;;4974059;28;20634;-83
2023/10/26 04:58:45;;;;;;;10.37;8.70;;;12.90;99.90;;;;;;4958998;28;20706;-82
2023/10/26 05:01:10;;;;;;;9.27;8.37;;;12.90;99.90;;;;;;4966724;28;20267;-83
2023/10/26 05:03:37;;;;;;;10.80;9.73;;;12.90;99.90;;;;;;4975040;28;20199;-84
2023/10/26 05:06:04;;;;;;;10.27;9.27;;;12.90;99.90;;;;;;4971037;28;20187;-83
2023/10/26 05:08:29;;;;;;;12.52;11.10;;;12.90;99.90;;;;;;4955455;28;20603;-83
2023/10/26 05:10:55;;;;;;;11.47;10.27;;;12.90;99.90;;;;;;4954869;28;20184;-83
2023/10/26 05:13:21;;;;;;;12.27;10.97;;;12.90;99.90;;;;;;4973977;28;20192;-83
2023/10/26 05:15:50;;;;;;;11.60;10.50;;;12.90;99.90;;;;;;4974887;28;20267;-83
2023/10/26 05:18:17;;;;;;;11.53;10.30;;;12.90;99.90;;;;;;4969351;28;20614;-83
2023/10/26 05:20:50;;;;;;;12.63;10.13;;;12.90;99.90;;;;;;4966750;28;21007;-83
2023/10/26 05:23:16;;;;;;;10.40;9.30;;;12.90;99.90;;;;;;4955106;28;20662;-83
2023/10/26 05:25:41;;;;;;;12.20;10.17;;;12.90;99.90;;;;;;4960753;28;20667;-82
2023/10/26 05:28:07;;;;;;;14.20;9.80;;;12.90;99.90;;;;;;4974410;28;20262;-83
2023/10/26 05:30:33;;;;;;;12.30;11.13;;;12.90;99.90;;;;;;4974705;28;20194;-83
2023/10/26 05:32:59;;;;;;;10.20;9.20;;;12.90;99.90;;;;;;4974486;28;20195;-85
2023/10/26 05:35:24;;;;;;;12.03;10.87;;;12.90;99.90;;;;;;4952140;28;20210;-83
2023/10/26 05:37:50;;;;;;;12.17;10.87;;;12.90;99.90;;;;;;4953312;28;20188;-82
2023/10/26 05:40:16;;;;;;;11.43;9.90;;;12.90;99.90;;;;;;4969837;28;20659;-83
2023/10/26 05:42:42;;;;;;;11.23;10.03;;;12.80;99.90;;;;;;4968615;28;20350;-84
2023/10/26 05:45:09;;;;;;;12.37;11.07;;;12.80;99.90;;;;;;4948713;28;20734;-84
2023/10/26 05:47:34;;;;;;;13.57;11.33;;;12.80;99.90;;;;;;4966805;28;20211;-83
2023/10/26 05:50:00;;;;;;;12.73;10.60;;;12.80;99.90;;;;;;4970772;28;21186;-75
2023/10/26 05:52:26;;;;;;;11.93;10.63;;;12.80;99.90;;;;;;4972311;28;20520;-75
2023/10/26 05:54:53;;;;;;;13.23;11.80;;;12.80;99.90;;;;;;4974280;28;20586;-75
2023/10/26 05:57:19;;;;;;;13.10;11.60;;;12.80;99.90;;;;;;4973234;28;20242;-75
2023/10/26 05:59:45;;;;;;;13.70;10.20;;;12.80;99.90;;;;;;4973494;28;20670;-75
2023/10/26 06:02:10;;;;;;;14.37;12.10;;;12.80;99.90;;;;;;4972217;28;20171;-75
2023/10/26 06:04:36;;;;;;;11.67;10.57;;;12.80;99.90;;;;;;4972475;28;20297;-75
2023/10/26 06:07:02;;;;;;;12.50;10.60;;;12.80;99.90;;;;;;4970688;28;20208;-75
2023/10/26 06:09:27;;;;;;;15.60;11.07;;;12.80;99.90;;;;;;4965687;28;20207;-76
2023/10/26 06:11:53;;;;;;;13.70;11.43;;;12.80;99.90;;;;;;4965501;28;20197;-76
2023/10/26 06:14:19;;;;;;;13.97;11.97;;;12.80;99.90;;;;;;4973236;28;20198;-76
2023/10/26 06:16:45;;;;;;;15.97;12.27;;;12.80;99.90;;;;;;4972108;28;20187;-76
2023/10/26 06:19:11;;;;;;;14.30;12.00;;;12.80;99.90;;;;;;4970540;28;20583;-75
2023/10/26 06:21:38;;;;;;;11.70;10.37;;;12.80;99.90;;;;;;4952776;28;20214;-75
2023/10/26 06:24:06;;;;;;;12.27;10.83;;;12.80;99.90;;;;;;4960748;28;21082;-75
2023/10/26 06:26:32;;;;;;;13.27;10.53;;;12.80;99.90;;;;;;4958761;28;20592;-75
2023/10/26 06:28:57;;;;;;;13.20;11.83;;;12.80;99.90;;;;;;4952739;28;20599;-75
2023/10/26 06:31:23;;;;;;;12.80;11.47;;;12.80;99.90;;;;;;4953762;28;20671;-74
2023/10/26 06:33:49;;;;;;;10.80;9.70;;;12.80;99.90;;;;;;4960800;28;20306;-75
2023/10/26 06:36:15;;;;;;;11.37;10.17;;;12.80;99.90;;;;;;4970832;28;20184;-75
2023/10/26 06:38:41;;;;;;;12.87;11.00;;;12.80;99.90;;;;;;4971820;28;20600;-75
2023/10/26 06:41:08;;;;;;;12.40;9.83;;;12.80;99.90;;;;;;4961549;28;20191;-74
2023/10/26 06:43:36;;;;;;;12.97;11.60;;;12.80;99.90;;;;;;4952069;28;20690;-74
2023/10/26 06:46:01;;;;;;;13.80;12.10;;;12.80;99.90;;;;;;4953142;28;20596;-74
2023/10/26 06:48:27;;;;;;;13.77;11.03;;;12.80;99.90;;;;;;4952213;28;20603;-74
2023/10/26 06:51:11;;;;;;;12.20;10.43;;;12.80;99.90;;;;;;4969406;28;20266;-75
2023/10/26 06:53:37;;;;;;;12.57;11.10;;;12.80;99.90;;;;;;4972546;28;20607;-75
2023/10/26 06:56:10;;;;;;;13.90;9.73;;;12.90;99.90;;;;;;4961818;28;20572;-75
2023/10/26 06:58:35;;;;;;;12.80;11.50;;;12.90;99.90;;;;;;4953622;28;20183;-75
2023/10/26 07:01:05;;;;;;;12.63;11.37;;;12.90;99.90;;;;;;4952446;28;20588;-74
2023/10/26 07:03:31;;;;;;;11.47;10.30;;;13.00;99.90;;;;;;4951840;29;20204;-74
2023/10/26 07:06:01;;;;;;;11.27;10.07;;;13.00;99.90;;;;;;4952756;28;20967;-74
2023/10/26 07:08:27;;;;;;;11.53;10.33;;;13.00;99.90;;;;;;4953256;28;20176;-74
2023/10/26 07:10:54;;;;;;;10.67;9.30;;;13.10;99.90;;;;;;4966213;28;20587;-75
2023/10/26 07:13:20;;;;;;;11.40;10.30;;;13.10;99.90;;;;;;4972302;28;20199;-75
2023/10/26 07:15:46;;;;;;;11.20;9.63;;;13.20;99.90;;;;;;4972010;28;20592;-75
2023/10/26 07:18:13;;;;;;;13.00;11.37;;;13.30;99.90;;;;;;4955058;28;20979;-75
2023/10/26 07:20:39;;;;;;;11.50;10.30;;;13.30;99.90;;;;;;4971087;28;20191;-76
2023/10/26 07:23:04;;;;;;;13.60;9.10;;;13.40;99.90;;;;;;4962861;28;20636;-75
2023/10/26 07:25:34;;;;;;;12.93;10.17;;;13.40;99.90;;;;;;4971508;28;20218;-76
2023/10/26 07:28:00;;;;;;;12.17;10.87;;;13.50;99.90;;;;;;4972033;28;20190;-74
2023/10/26 07:30:25;;;;;;;12.67;11.37;;;13.60;99.90;;;;;;4972305;28;20724;-75
2023/10/26 07:32:51;;;;;;;12.03;10.83;;;13.60;99.90;;;;;;4964275;28;20621;-76
2023/10/26 07:35:17;;;;;;;12.50;11.00;;;13.70;99.90;;;;;;4954407;28;20195;-76
2023/10/26 07:37:42;;;;;;;12.70;11.30;;;13.80;99.90;;;;;;4957965;28;20235;-76
2023/10/26 07:40:09;;;;;;;13.10;11.30;;;13.80;99.90;;;;;;4951722;28;20211;-76
2023/10/26 07:42:34;;;;;;;12.97;11.57;;;13.80;99.90;;;;;;4951513;28;20212;-76
2023/10/26 07:45:00;;;;;;;12.10;10.83;;;13.90;99.90;;;;;;4958320;28;20991;-76
2023/10/26 07:47:28;;;;;;;13.50;12.07;;;13.90;99.90;;;;;;4952351;28;20536;-75
2023/10/26 07:49:53;;;;;;;12.50;11.10;;;14.00;99.90;;;;;;4955421;28;20579;-76
2023/10/26 07:52:19;;;;;;;11.70;10.50;;;14.00;99.90;;;;;;4954520;28;20179;-76
2023/10/26 07:54:45;;;;;;;12.70;11.50;;;14.00;99.90;;;;;;4970544;28;20720;-76
2023/10/26 07:57:11;;;;;;;11.63;10.47;;;14.10;99.90;;;;;;4971523;28;20183;-76
2023/10/26 07:59:36;;;;;;;13.37;11.70;;;14.10;99.90;;;;;;4970576;28;20262;-76
2023/10/26 08:02:02;;;;;;;16.03;11.57;;;14.10;99.90;;;;;;4954525;28;20587;-75
2023/10/26 08:04:32;;;;;;;12.70;11.40;;;14.20;99.90;;;;;;4969607;28;20215;-75
2023/10/26 08:06:58;;;;;;;13.63;11.70;;;14.20;99.90;;;;;;4970970;28;20642;-75
2023/10/26 08:09:28;;;;;;;13.57;12.17;;;14.30;99.90;;;;;;4971832;28;20591;-75
2023/10/26 08:11:53;;;;;;;13.07;11.73;;;14.40;99.90;;;;;;4970683;28;20594;-75
2023/10/26 08:14:19;;;;;;;14.60;13.20;;;14.50;99.90;;;;;;4969939;28;20639;-75
2023/10/26 08:16:45;;;;;;;13.73;12.37;;;14.60;99.90;;;;;;4970223;28;20176;-75
2023/10/26 08:19:10;;;;;;;13.13;11.73;;;14.70;99.90;;;;;;4971685;28;20547;-75
2023/10/26 08:21:36;;;;;;;15.00;13.60;;;14.70;99.90;;;;;;4971741;28;20538;-75
2023/10/26 08:24:02;;;;;;;15.10;12.40;;;14.80;99.90;;;;;;4970818;28;20207;-76
2023/10/26 08:26:28;;;;;;;14.37;12.87;;;14.90;99.90;;;;;;4970066;28;20164;-76
2023/10/26 08:28:54;;;;;;;13.70;12.20;;;15.00;99.90;;;;;;4970382;28;21175;-75
2023/10/26 08:31:20;;;;;;;15.23;12.63;;;15.00;99.90;;;;;;4971830;28;20198;-75
2023/10/26 08:33:46;;;;;;;13.70;12.40;;;15.10;99.90;;;;;;4970167;28;20615;-75
2023/10/26 08:36:11;;;;;;;13.30;12.00;;;15.10;99.90;;;;;;4969896;28;20686;-76
2023/10/26 08:38:37;;;;;;;14.90;13.40;;;15.10;99.90;;;;;;4954186;28;20184;-73
2023/10/26 08:41:03;;;;;;;14.47;13.07;;;15.20;99.90;;;;;;4970399;28;20184;-74
2023/10/26 08:43:30;;;;;;;15.07;13.47;;;15.40;99.90;;;;;;4969527;28;20199;-73
2023/10/26 08:46:00;;;;;;;17.40;15.33;;;15.50;99.90;;;;;;4971360;28;20966;-74
2023/10/26 08:48:30;;;;;;;15.37;13.87;;;15.50;99.90;;;;;;4974488;28;20581;-74
2023/10/26 08:50:56;;;;;;;14.10;12.60;;;15.60;99.90;;;;;;4959802;28;20580;-74
2023/10/26 08:53:22;;;;;;;14.23;12.80;;;15.60;99.90;;;;;;4938414;29;20664;-74
2023/10/26 08:55:52;;;;;;;13.20;11.80;;;15.70;99.90;;;;;;4955327;28;20615;-73
2023/10/26 08:58:20;;;;;;;14.33;12.90;;;15.80;99.90;;;;;;4954324;28;20191;-74
2023/10/26 09:00:46;;;;;;;14.43;12.93;;;15.80;99.90;;;;;;4954097;28;20584;-74
2023/10/26 09:03:12;;;;;;;13.10;11.77;;;15.90;99.90;;;;;;4955475;28;20678;-74
2023/10/26 09:05:52;;;;;;;14.90;13.50;;;15.90;99.90;;;;;;4937917;29;20211;-74
2023/10/26 09:08:18;;;;;;;13.97;12.47;;;16.00;99.90;;;;;;4944309;28;20601;-74
2023/10/26 09:10:44;;;;;;;12.23;11.00;;;16.30;99.90;;;;;;4957434;28;21749;-74
2023/10/26 09:13:11;;;;;;;13.60;12.03;;;16.60;99.90;;;;;;4965480;28;20214;-74
2023/10/26 09:15:48;;;;;;;11.93;10.20;;;17.00;99.90;;;;;;4973043;28;20595;-74
2023/10/26 09:18:17;;;;;;;12.90;11.60;;;17.20;99.90;;;;;;4973227;28;20590;-74
2023/10/26 09:20:59;;;;;;;14.20;12.80;;;17.40;99.90;;;;;;4973348;28;20682;-74
2023/10/26 09:23:29;;;;;;;11.43;10.33;;;17.40;99.90;;;;;;4974351;28;20714;-73
2023/10/26 09:25:59;;;;;;;12.30;11.10;;;17.40;99.90;;;;;;4974122;28;20844;-74
2023/10/26 09:28:25;;;;;;;13.23;11.90;;;17.30;99.90;;;;;;4972458;28;20583;-74
2023/10/26 09:30:59;;;;;;;12.20;10.53;;;17.20;99.90;;;;;;4973010;28;20946;-74
2023/10/26 09:33:27;;;;;;;12.63;11.37;;;17.10;99.90;;;;;;4962859;28;20222;-73
2023/10/26 09:35:52;;;;;;;11.57;10.37;;;17.00;99.90;;;;;;4953273;28;20600;-75
2023/10/26 09:38:36;;;;;;;11.50;10.40;;;16.90;99.90;;;;;;4954756;28;20964;-73
2023/10/26 09:41:06;;;;;;;13.00;10.77;;;16.80;99.90;;;;;;4954991;28;20599;-73
2023/10/26 09:43:32;;;;;;;12.60;11.30;;;16.70;99.90;;;;;;4965834;28;20610;-74
2023/10/26 09:45:58;;;;;;;11.20;10.03;;;16.60;99.90;;;;;;4973785;28;20603;-73
2023/10/26 09:48:25;;;;;;;13.80;12.33;;;16.60;99.90;;;;;;4973390;28;20634;-73
2023/10/26 09:50:52;;;;;;;11.67;10.57;;;16.50;99.90;;;;;;4973708;28;20190;-73
2023/10/26 09:53:20;;;;;;;12.13;11.00;;;16.40;99.90;;;;;;4973394;28;20619;-73
2023/10/26 09:55:47;;;;;;;14.37;11.80;;;16.50;99.90;;;;;;4966298;28;20608;-73
2023/10/26 09:58:15;;;;;;;12.00;10.80;;;16.50;99.90;;;;;;4953818;28;20588;-73
2023/10/26 10:00:41;;;;;;;13.33;11.93;;;16.50;99.90;;;;;;4954464;28;20584;-73
2023/10/26 10:03:17;;;;;;;13.47;12.10;;;16.70;99.90;;;;;;4937134;28;21196;-73
2023/10/26 10:05:46;;;;;;;11.57;10.47;;;16.80;99.90;;;;;;4952743;28;20991;-73
2023/10/26 10:08:13;;;;;;;13.50;10.87;;;17.00;99.90;;;;;;4961046;28;20599;-73
2023/10/26 10:11:14;;;;;;;11.17;10.00;;;17.10;99.90;;;;;;4973605;28;20579;-73
2023/10/26 10:13:40;;;;;;;10.80;9.77;;;17.20;99.90;;;;;;4973072;28;20618;-73
2023/10/26 10:16:35;;;;;;;11.43;8.73;;;17.40;99.90;;;;;;4973422;28;20589;-73
2023/10/26 10:19:18;;;;;;;9.50;8.20;;;17.50;99.90;;;;;;4973286;28;20534;-73
2023/10/26 10:21:44;;;;;;;8.60;7.80;;;17.70;99.90;;;;;;4972316;28;20619;-73
2023/10/26 10:24:10;;;;;;;8.00;7.20;;;17.80;99.90;;;;;;4972966;28;20673;-73
2023/10/26 10:27:10;;;;;;;9.53;8.57;;;17.70;99.90;;;;;;4972575;28;21022;-73
2023/10/26 10:29:36;;;;;;;7.87;7.07;;;17.60;99.90;;;;;;4972011;28;20593;-72
2023/10/26 10:32:01;;;;;;;7.50;6.80;;;17.70;99.90;;;;;;4973212;28;20587;-74
2023/10/26 10:34:33;;;;;;;9.50;7.47;;;17.80;99.90;;;;;;4972810;28;20200;-72
2023/10/26 10:37:22;;;;;;;9.40;8.50;;;17.80;99.90;;;;;;4971373;28;20258;-76
2023/10/26 10:40:11;;;;;;;9.30;8.17;;;17.90;99.90;;;;;;4949839;28;20670;-76
2023/10/26 10:42:39;;;;;;;11.03;9.10;;;18.00;99.90;;;;;;4955090;28;21263;-76
2023/10/26 10:45:11;;;;;;;10.33;9.33;;;18.10;99.90;;;;;;4973063;28;20634;-77
2023/10/26 10:47:41;;;;;;;9.07;8.13;;;18.00;99.90;;;;;;4975393;28;20598;-75
2023/10/26 10:50:20;;;;;;;12.00;10.10;;;17.80;99.90;;;;;;4974002;28;20627;-76
2023/10/26 10:52:54;;;;;;;7.73;6.93;;;17.80;99.90;;;;;;4971763;28;20618;-76
2023/10/26 10:55:22;;;;;;;7.93;7.23;;;17.70;99.90;;;;;;4955653;28;20598;-76
2023/10/26 10:58:02;;;;;;;6.77;5.70;;;17.60;99.90;;;;;;4970465;28;20594;-76
2023/10/26 11:00:42;;;;;;;5.97;5.00;;;17.50;99.90;;;;;;4963521;28;21168;-76
2023/10/26 11:03:08;;;;;;;5.90;5.20;;;17.40;99.90;;;;;;4955593;28;20619;-73
2023/10/26 11:05:39;;;;;;;7.37;6.67;;;17.40;99.90;;;;;;4935976;28;20698;-74
2023/10/26 11:08:06;;;;;;;8.27;7.50;;;17.40;99.90;;;;;;4959247;28;20191;-74
2023/10/26 11:10:32;;;;;;;9.13;8.27;;;17.50;99.90;;;;;;4951537;28;20588;-74
2023/10/26 11:12:58;;;;;;;10.73;9.70;;;17.50;99.90;;;;;;4940600;28;20620;-73
2023/10/26 11:15:32;;;;;;;10.20;9.30;;;17.50;99.90;;;;;;4971148;28;20686;-74
2023/10/26 11:17:58;;;;;;;10.00;9.00;;;17.40;99.90;;;;;;4971946;28;20171;-73
2023/10/26 11:20:36;;;;;;;12.83;9.97;;;17.40;99.90;;;;;;4971038;28;20645;-76
2023/10/26 11:23:06;;;;;;;9.27;8.40;;;17.30;99.90;;;;;;4972358;28;20630;-74
2023/10/26 11:25:31;;;;;;;7.70;6.90;;;17.30;99.90;;;;;;4970946;28;20977;-74
2023/10/26 11:27:57;;;;;;;8.10;7.40;;;17.20;99.90;;;;;;4971915;28;20658;-74
2023/10/26 11:30:23;;;;;;;6.77;6.27;;;17.00;99.90;;;;;;4954868;28;20175;-73
2023/10/26 11:32:49;;;;;;;6.70;6.10;;;16.80;99.90;;;;;;4971213;28;20638;-73
2023/10/26 11:35:16;;;;;;;5.70;5.20;;;16.70;99.90;;;;;;4971023;28;20194;-72
2023/10/26 11:37:47;;;;;;;6.47;5.53;;;16.70;99.90;;;;;;4972008;28;20590;-73
2023/10/26 11:40:16;;;;;;;8.30;7.50;;;16.80;99.90;;;;;;4972279;28;20594;-73
2023/10/26 11:42:47;;;;;;;8.37;6.97;;;16.80;99.90;;;;;;4972183;28;20629;-73
2023/10/26 11:45:18;;;;;;;8.10;7.30;;;16.80;99.90;;;;;;4972136;28;20668;-73
2023/10/26 11:47:50;;;;;;;7.87;7.07;;;16.80;99.90;;;;;;4970646;28;20591;-73
2023/10/26 11:50:26;;;;;;;6.57;5.87;;;16.90;99.90;;;;;;4971657;28;20630;-73
2023/10/26 11:52:54;;;;;;;5.53;5.03;;;17.00;99.90;;;;;;4966201;28;20673;-73
2023/10/26 11:55:21;;;;;;;5.80;5.27;;;17.20;99.90;;;;;;4954597;28;20614;-73
2023/10/26 11:57:48;;;;;;;5.63;4.80;;;17.30;99.90;;;;;;4966976;28;20588;-73
2023/10/26 12:00:15;;;;;;;6.27;5.60;;;17.50;99.90;;;;;;4956980;28;20619;-73
2023/10/26 12:02:42;;;;;;;5.20;4.70;;;17.60;99.90;;;;;;4951519;29;20619;-73
2023/10/26 12:05:11;;;;;;;7.00;4.53;;;17.60;99.90;;;;;;4951352;28;20743;-72
2023/10/26 12:07:36;;;;;;;5.63;4.50;;;17.70;99.90;;;;;;4951138;28;20620;-73
2023/10/26 12:10:03;;;;;;;5.63;4.87;;;17.60;99.90;;;;;;4952480;28;20611;-73
2023/10/26 12:12:29;;;;;;;4.53;4.13;;;17.50;99.90;;;;;;4970662;28;20741;-72
2023/10/26 12:14:55;;;;;;;4.37;3.87;;;17.40;99.90;;;;;;4963951;28;20713;-74
2023/10/26 12:17:21;;;;;;;3.40;3.10;;;17.20;99.90;;;;;;4954547;28;20626;-73
2023/10/26 12:19:46;;;;;;;5.77;3.40;;;17.20;99.90;;;;;;4964202;28;20187;-73
2023/10/26 12:22:12;;;;;;;3.63;3.23;;;17.20;99.90;;;;;;4974698;28;20195;-72
2023/10/26 12:24:38;;;;;;;3.30;3.00;;;17.00;99.90;;;;;;4972102;28;20208;-72
2023/10/26 12:27:04;;;;;;;2.43;2.23;;;16.90;99.90;;;;;;4969664;28;20301;-72
2023/10/26 12:29:31;;;;;;;4.70;4.20;;;16.90;99.90;;;;;;4975509;28;20583;-72
2023/10/26 12:31:57;;;;;;;4.07;2.80;;;16.70;99.90;;;;;;4974639;28;20962;-72
2023/10/26 12:34:23;;;;;;;3.20;2.70;;;16.60;99.90;;;;;;4974390;28;20626;-72
2023/10/26 12:36:48;;;;;;;5.03;2.70;;;16.60;99.90;;;;;;4963867;28;20596;-73